createdAt,value
2023-05-13T00:00:37.241Z,17.06
2023-05-13T00:01:37.258Z,17.06
2023-05-13T00:02:37.305Z,16.96
2023-05-13T00:03:37.341Z,17.01
2023-05-13T00:04:37.232Z,16.83
2023-05-13T00:05:37.278Z,16.75
2023-05-13T00:06:37.302Z,16.78
2023-05-13T00:07:37.188Z,16.71
2023-05-13T00:08:44.815Z,16.93
2023-05-13T00:09:37.147Z,16.93
2023-05-13T00:10:37.199Z,16.93
2023-05-13T00:11:37.137Z,16.79
2023-05-13T00:12:37.138Z,16.79
2023-05-13T00:13:37.141Z,16.65
2023-05-13T00:14:37.101Z,16.68
2023-05-13T00:15:37.108Z,16.61
2023-05-13T00:16:37.137Z,16.61
2023-05-13T00:17:38.092Z,16.56
2023-05-13T00:18:37.105Z,16.46
2023-05-13T00:19:37.073Z,16.51
2023-05-13T00:20:37.030Z,16.47
2023-05-13T00:21:37.045Z,16.50
2023-05-13T00:22:37.014Z,16.35
2023-05-13T00:23:37.023Z,16.42
2023-05-13T00:24:36.997Z,16.43
2023-05-13T00:25:37.005Z,16.56
2023-05-13T00:26:36.965Z,16.53
2023-05-13T00:27:36.952Z,16.50
2023-05-13T00:28:36.996Z,16.57
2023-05-13T00:29:36.964Z,16.58
2023-05-13T00:30:36.942Z,16.61
2023-05-13T00:31:37.007Z,16.66
2023-05-13T00:32:36.952Z,16.65
2023-05-13T00:33:36.900Z,16.64
2023-05-13T00:34:36.914Z,16.61
2023-05-13T00:35:37.215Z,16.68
2023-05-13T00:36:36.867Z,16.65
2023-05-13T00:37:36.883Z,16.61
2023-05-13T00:38:36.846Z,16.61
2023-05-13T00:39:36.823Z,16.61
2023-05-13T00:40:36.824Z,16.58
2023-05-13T00:41:36.829Z,16.50
2023-05-13T00:42:36.818Z,16.61
2023-05-13T00:43:36.779Z,16.47
2023-05-13T00:44:36.782Z,16.61
2023-05-13T00:45:36.764Z,16.49
2023-05-13T00:46:36.765Z,16.58
2023-05-13T00:47:36.815Z,16.58
2023-05-13T00:48:36.786Z,16.60
2023-05-13T00:49:36.727Z,16.51
2023-05-13T00:50:36.715Z,16.50
2023-05-13T00:51:36.699Z,16.46
2023-05-13T00:52:36.694Z,16.41
2023-05-13T00:53:36.744Z,16.47
2023-05-13T00:54:36.739Z,16.46
2023-05-13T00:55:36.654Z,16.35
2023-05-13T00:56:36.638Z,16.24
2023-05-13T00:57:36.634Z,16.24
2023-05-13T00:58:36.636Z,16.16
2023-05-13T00:59:36.635Z,16.08
2023-05-13T01:00:36.629Z,16.08
2023-05-13T01:01:36.777Z,16.00
2023-05-13T01:02:36.658Z,15.98
2023-05-13T01:03:36.622Z,16.05
2023-05-13T01:04:36.570Z,16.08
2023-05-13T01:05:36.563Z,16.08
2023-05-13T01:06:36.537Z,16.04
2023-05-13T01:07:36.547Z,15.95
2023-05-13T01:08:36.509Z,15.88
2023-05-13T01:09:36.503Z,15.82
2023-05-13T01:10:36.488Z,15.88
2023-05-13T01:11:36.494Z,15.88
2023-05-13T01:12:36.488Z,15.97
2023-05-13T01:13:36.446Z,15.98
2023-05-13T01:14:36.446Z,15.94
2023-05-13T01:15:36.431Z,15.94
2023-05-13T01:16:36.443Z,16.00
2023-05-13T01:17:36.478Z,16.01
2023-05-13T01:18:36.489Z,15.95
2023-05-13T01:19:36.400Z,15.95
2023-05-13T01:20:36.376Z,16.08
2023-05-13T01:21:36.380Z,16.04
2023-05-13T01:22:36.387Z,16.05
2023-05-13T01:23:36.346Z,16.13
2023-05-13T01:24:36.395Z,16.13
2023-05-13T01:25:36.319Z,16.15
2023-05-13T01:26:36.301Z,16.12
2023-05-13T01:27:36.314Z,16.23
2023-05-13T01:28:36.313Z,16.15
2023-05-13T01:29:36.307Z,15.97
2023-05-13T01:30:36.264Z,15.84
2023-05-13T01:31:36.336Z,15.86
2023-05-13T01:32:36.250Z,15.88
2023-05-13T01:33:36.246Z,15.90
2023-05-13T01:34:36.227Z,15.82
2023-05-13T01:35:36.244Z,15.73
2023-05-13T01:36:36.192Z,15.79
2023-05-13T01:37:36.202Z,15.86
2023-05-13T01:38:36.184Z,15.91
2023-05-13T01:39:36.162Z,15.92
2023-05-13T01:40:36.375Z,15.91
2023-05-13T01:41:36.159Z,15.95
2023-05-13T01:42:36.172Z,16.00
2023-05-13T01:43:36.116Z,15.98
2023-05-13T01:44:36.112Z,15.97
2023-05-13T01:45:36.106Z,15.98
2023-05-13T01:46:36.145Z,16.02
2023-05-13T01:47:36.145Z,16.10
2023-05-13T01:48:36.116Z,16.01
2023-05-13T01:49:36.061Z,15.97
2023-05-13T01:50:36.061Z,15.97
2023-05-13T01:51:36.056Z,16.04
2023-05-13T01:52:36.041Z,16.01
2023-05-13T01:53:36.011Z,16.05
2023-05-13T01:54:36.019Z,16.04
2023-05-13T01:55:35.986Z,16.09
2023-05-13T01:56:35.996Z,16.09
2023-05-13T01:57:35.965Z,16.12
2023-05-13T01:58:35.964Z,16.17
2023-05-13T01:59:35.985Z,16.16
2023-05-13T02:00:35.934Z,16.17
2023-05-13T02:01:35.952Z,16.13
2023-05-13T02:02:36.013Z,16.15
2023-05-13T02:03:35.984Z,16.04
2023-05-13T02:04:35.912Z,16.00
2023-05-13T02:05:35.905Z,15.91
2023-05-13T02:06:35.902Z,15.92
2023-05-13T02:07:35.881Z,16.02
2023-05-13T02:08:35.840Z,15.98
2023-05-13T02:09:35.855Z,15.91
2023-05-13T02:10:35.860Z,15.98
2023-05-13T02:11:35.823Z,16.00
2023-05-13T02:12:35.803Z,16.01
2023-05-13T02:13:35.865Z,16.09
2023-05-13T02:14:35.776Z,16.04
2023-05-13T02:15:35.776Z,15.94
2023-05-13T02:16:35.836Z,15.98
2023-05-13T02:17:35.764Z,15.97
2023-05-13T02:18:35.768Z,16.01
2023-05-13T02:19:35.744Z,16.02
2023-05-13T02:20:35.715Z,16.00
2023-05-13T02:21:35.735Z,16.00
2023-05-13T02:22:35.689Z,15.97
2023-05-13T02:23:35.715Z,15.95
2023-05-13T02:24:35.693Z,16.05
2023-05-13T02:25:35.689Z,16.05
2023-05-13T02:26:35.648Z,16.01
2023-05-13T02:27:35.682Z,16.09
2023-05-13T02:28:35.621Z,16.09
2023-05-13T02:29:35.624Z,16.09
2023-05-13T02:30:35.617Z,16.05
2023-05-13T02:31:35.631Z,16.00
2023-05-13T02:32:35.612Z,16.05
2023-05-13T02:33:35.593Z,16.09
2023-05-13T02:34:35.612Z,16.04
2023-05-13T02:35:35.555Z,16.04
2023-05-13T02:36:35.536Z,16.08
2023-05-13T02:37:35.534Z,16.01
2023-05-13T02:38:35.530Z,16.00
2023-05-13T02:39:35.726Z,16.05
2023-05-13T02:40:35.539Z,15.98
2023-05-13T02:41:35.487Z,16.09
2023-05-13T02:42:35.479Z,15.97
2023-05-13T02:43:35.508Z,16.04
2023-05-13T02:44:35.495Z,15.92
2023-05-13T02:45:35.633Z,15.94
2023-05-13T02:46:35.505Z,15.91
2023-05-13T02:47:35.479Z,15.83
2023-05-13T02:48:35.415Z,15.77
2023-05-13T02:49:35.433Z,15.86
2023-05-13T02:50:35.406Z,15.84
2023-05-13T02:51:35.378Z,15.84
2023-05-13T02:52:35.380Z,15.80
2023-05-13T02:53:35.358Z,15.86
2023-05-13T02:54:35.350Z,15.90
2023-05-13T02:55:35.393Z,15.91
2023-05-13T02:56:35.343Z,15.86
2023-05-13T02:57:35.316Z,15.83
2023-05-13T02:58:35.303Z,15.95
2023-05-13T02:59:35.337Z,15.86
2023-05-13T03:00:35.302Z,15.97
2023-05-13T03:01:35.308Z,15.92
2023-05-13T03:02:35.361Z,15.86
2023-05-13T03:03:35.403Z,15.86
2023-05-13T03:04:35.249Z,15.94
2023-05-13T03:05:35.257Z,15.79
2023-05-13T03:06:35.216Z,15.75
2023-05-13T03:07:35.264Z,15.73
2023-05-13T03:08:35.236Z,15.72
2023-05-13T03:09:35.190Z,15.65
2023-05-13T03:10:35.169Z,15.65
2023-05-13T03:11:35.187Z,15.62
2023-05-13T03:12:35.172Z,15.70
2023-05-13T03:13:35.205Z,15.73
2023-05-13T03:14:35.152Z,15.68
2023-05-13T03:15:35.119Z,15.67
2023-05-13T03:16:35.126Z,15.68
2023-05-13T03:17:35.127Z,15.64
2023-05-13T03:18:35.160Z,15.57
2023-05-13T03:19:35.087Z,15.52
2023-05-13T03:20:35.106Z,15.42
2023-05-13T03:21:35.049Z,15.39
2023-05-13T03:22:35.034Z,15.54
2023-05-13T03:23:35.030Z,15.49
2023-05-13T03:24:35.044Z,15.57
2023-05-13T03:25:35.029Z,15.55
2023-05-13T03:26:35.054Z,15.57
2023-05-13T03:27:35.002Z,15.58
2023-05-13T03:28:34.985Z,15.58
2023-05-13T03:29:34.954Z,15.55
2023-05-13T03:30:34.950Z,15.47
2023-05-13T03:31:35.005Z,15.59
2023-05-13T03:32:34.988Z,15.61
2023-05-13T03:33:34.917Z,15.62
2023-05-13T03:34:34.914Z,15.55
2023-05-13T03:35:34.901Z,15.58
2023-05-13T03:36:34.906Z,15.59
2023-05-13T03:37:34.883Z,15.58
2023-05-13T03:38:34.891Z,15.55
2023-05-13T03:39:34.864Z,15.54
2023-05-13T03:40:34.836Z,15.44
2023-05-13T03:41:34.826Z,15.46
2023-05-13T03:42:34.829Z,15.37
2023-05-13T03:43:34.855Z,15.33
2023-05-13T03:44:34.791Z,15.37
2023-05-13T03:45:34.799Z,15.39
2023-05-13T03:46:34.838Z,15.43
2023-05-13T03:47:34.783Z,15.46
2023-05-13T03:48:34.797Z,15.57
2023-05-13T03:49:34.766Z,15.62
2023-05-13T03:50:34.722Z,15.65
2023-05-13T03:51:34.729Z,15.58
2023-05-13T03:52:34.720Z,15.59
2023-05-13T03:53:34.716Z,15.55
2023-05-13T03:54:34.699Z,15.46
2023-05-13T03:55:34.673Z,15.55
2023-05-13T03:56:34.719Z,15.57
2023-05-13T03:57:34.660Z,15.54
2023-05-13T03:58:34.654Z,15.58
2023-05-13T03:59:34.659Z,15.49
2023-05-13T04:00:34.653Z,15.54
2023-05-13T04:01:34.643Z,15.44
2023-05-13T04:02:34.751Z,15.44
2023-05-13T04:03:34.602Z,15.44
2023-05-13T04:04:34.577Z,15.51
2023-05-13T04:05:34.575Z,15.44
2023-05-13T04:06:34.581Z,15.39
2023-05-13T04:07:34.535Z,15.39
2023-05-13T04:08:34.558Z,15.44
2023-05-13T04:09:34.531Z,15.46
2023-05-13T04:10:34.573Z,15.31
2023-05-13T04:11:34.517Z,15.18
2023-05-13T04:12:34.484Z,15.11
2023-05-13T04:13:34.471Z,15.11
2023-05-13T04:14:34.474Z,15.09
2023-05-13T04:15:34.584Z,15.11
2023-05-13T04:16:34.471Z,15.27
2023-05-13T04:17:34.466Z,15.24
2023-05-13T04:18:34.461Z,15.18
2023-05-13T04:19:34.419Z,15.24
2023-05-13T04:20:34.433Z,15.24
2023-05-13T04:21:34.428Z,15.24
2023-05-13T04:22:34.387Z,15.24
2023-05-13T04:23:34.378Z,15.28
2023-05-13T04:24:34.367Z,15.29
2023-05-13T04:25:34.363Z,15.39
2023-05-13T04:26:34.379Z,15.36
2023-05-13T04:27:34.322Z,15.31
2023-05-13T04:28:34.320Z,15.36
2023-05-13T04:29:34.295Z,15.31
2023-05-13T04:30:34.282Z,15.40
2023-05-13T04:31:34.372Z,15.44
2023-05-13T04:32:34.309Z,15.39
2023-05-13T04:33:34.281Z,15.33
2023-05-13T04:34:34.243Z,15.40
2023-05-13T04:35:34.260Z,15.43
2023-05-13T04:36:34.214Z,15.44
2023-05-13T04:37:34.231Z,15.55
2023-05-13T04:38:34.228Z,15.61
2023-05-13T04:39:34.187Z,15.57
2023-05-13T04:40:34.197Z,15.68
2023-05-13T04:41:34.167Z,15.67
2023-05-13T04:42:34.204Z,15.72
2023-05-13T04:43:34.155Z,15.76
2023-05-13T04:44:34.166Z,15.86
2023-05-13T04:45:34.132Z,15.83
2023-05-13T04:46:34.176Z,15.88
2023-05-13T04:47:34.137Z,15.94
2023-05-13T04:48:34.120Z,16.01
2023-05-13T04:49:34.150Z,16.15
2023-05-13T04:50:34.063Z,16.20
2023-05-13T04:51:34.070Z,16.32
2023-05-13T04:52:34.045Z,16.31
2023-05-13T04:53:34.029Z,16.49
2023-05-13T04:54:34.021Z,16.49
2023-05-13T04:55:34.039Z,16.54
2023-05-13T04:56:34.003Z,16.56
2023-05-13T04:57:33.999Z,16.58
2023-05-13T04:58:34.014Z,16.49
2023-05-13T04:59:33.966Z,16.54
2023-05-13T05:00:33.974Z,16.57
2023-05-13T05:01:34.023Z,16.60
2023-05-13T05:02:33.972Z,16.69
2023-05-13T05:03:33.965Z,16.71
2023-05-13T05:04:33.939Z,16.75
2023-05-13T05:05:33.951Z,16.86
2023-05-13T05:06:33.904Z,16.86
2023-05-13T05:07:33.893Z,16.83
2023-05-13T05:08:33.873Z,16.84
2023-05-13T05:09:33.889Z,16.87
2023-05-13T05:10:33.844Z,16.87
2023-05-13T05:11:34.564Z,16.90
2023-05-13T05:12:33.908Z,17.08
2023-05-13T05:13:33.857Z,17.04
2023-05-13T05:14:33.824Z,17.08
2023-05-13T05:15:33.810Z,17.12
2023-05-13T05:16:33.784Z,17.16
2023-05-13T05:17:33.893Z,17.27
2023-05-13T05:18:33.848Z,17.30
2023-05-13T05:19:33.862Z,17.45
2023-05-13T05:20:33.746Z,17.41
2023-05-13T05:21:33.798Z,17.45
2023-05-13T05:22:33.748Z,17.49
2023-05-13T05:23:33.705Z,17.63
2023-05-13T05:24:33.694Z,17.57
2023-05-13T05:25:33.699Z,17.57
2023-05-13T05:26:33.673Z,17.56
2023-05-13T05:27:33.675Z,17.57
2023-05-13T05:28:33.687Z,17.63
2023-05-13T05:29:33.633Z,17.68
2023-05-13T05:30:33.636Z,17.74
2023-05-13T05:31:33.670Z,17.74
2023-05-13T05:32:33.626Z,17.74
2023-05-13T05:33:33.628Z,17.80
2023-05-13T05:34:33.596Z,17.89
2023-05-13T05:35:33.737Z,17.90
2023-05-13T05:36:34.294Z,17.89
2023-05-13T05:37:33.552Z,17.94
2023-05-13T05:38:33.553Z,17.95
2023-05-13T05:39:33.555Z,18.07
2023-05-13T05:40:33.517Z,18.11
2023-05-13T05:41:33.503Z,18.07
2023-05-13T05:42:33.495Z,18.18
2023-05-13T05:43:33.520Z,18.16
2023-05-13T05:44:33.479Z,18.33
2023-05-13T05:45:33.493Z,18.28
2023-05-13T05:46:33.466Z,18.31
2023-05-13T05:47:33.516Z,18.28
2023-05-13T05:48:34.753Z,18.29
2023-05-13T05:49:33.428Z,18.33
2023-05-13T05:50:33.423Z,18.29
2023-05-13T05:51:33.554Z,18.23
2023-05-13T05:52:33.380Z,18.23
2023-05-13T05:53:33.375Z,18.28
2023-05-13T05:54:33.358Z,18.33
2023-05-13T05:55:33.365Z,18.34
2023-05-13T05:56:33.360Z,18.28
2023-05-13T05:57:33.335Z,18.43
2023-05-13T05:58:33.338Z,18.28
2023-05-13T05:59:33.309Z,18.37
2023-05-13T06:00:33.400Z,18.43
2023-05-13T06:01:33.310Z,18.43
2023-05-13T06:02:33.414Z,18.50
2023-05-13T06:03:33.402Z,18.59
2023-05-13T06:04:33.298Z,18.66
2023-05-13T06:05:33.263Z,18.53
2023-05-13T06:06:33.301Z,18.59
2023-05-13T06:07:33.254Z,18.66
2023-05-13T06:08:33.226Z,18.70
2023-05-13T06:09:33.213Z,18.80
2023-05-13T06:10:33.205Z,18.71
2023-05-13T06:11:33.205Z,18.66
2023-05-13T06:12:33.182Z,18.70
2023-05-13T06:13:33.164Z,18.77
2023-05-13T06:14:33.153Z,18.74
2023-05-13T06:15:33.159Z,18.78
2023-05-13T06:16:33.227Z,18.66
2023-05-13T06:17:33.140Z,18.73
2023-05-13T06:18:33.142Z,18.81
2023-05-13T06:19:33.109Z,18.77
2023-05-13T06:20:33.112Z,18.84
2023-05-13T06:21:33.083Z,18.88
2023-05-13T06:22:33.065Z,18.86
2023-05-13T06:23:33.063Z,18.90
2023-05-13T06:24:33.047Z,18.95
2023-05-13T06:25:33.035Z,18.98
2023-05-13T06:26:33.055Z,19.04
2023-05-13T06:27:33.018Z,19.11
2023-05-13T06:28:33.005Z,19.14
2023-05-13T06:29:32.987Z,19.14
2023-05-13T06:30:32.993Z,19.27
2023-05-13T06:31:33.007Z,19.30
2023-05-13T06:32:33.046Z,19.18
2023-05-13T06:33:33.042Z,19.12
2023-05-13T06:34:32.959Z,19.24
2023-05-13T06:35:32.952Z,19.30
2023-05-13T06:36:32.911Z,19.37
2023-05-13T06:37:32.921Z,19.39
2023-05-13T06:38:32.882Z,19.34
2023-05-13T06:39:32.916Z,19.39
2023-05-13T06:40:32.872Z,19.29
2023-05-13T06:41:32.856Z,19.37
2023-05-13T06:42:32.854Z,19.45
2023-05-13T06:43:32.834Z,19.54
2023-05-13T06:44:32.829Z,19.69
2023-05-13T06:45:32.835Z,19.63
2023-05-13T06:46:32.830Z,19.76
2023-05-13T06:47:32.807Z,19.74
2023-05-13T06:48:32.783Z,19.88
2023-05-13T06:49:32.791Z,19.88
2023-05-13T06:50:32.765Z,19.74
2023-05-13T06:51:32.747Z,19.64
2023-05-13T06:52:32.749Z,19.64
2023-05-13T06:53:32.739Z,19.63
2023-05-13T06:54:32.720Z,19.62
2023-05-13T06:55:32.730Z,19.63
2023-05-13T06:56:32.708Z,19.69
2023-05-13T06:57:41.850Z,19.74
2023-05-13T06:58:33.687Z,19.66
2023-05-13T06:59:32.672Z,19.84
2023-05-13T07:00:32.643Z,19.74
2023-05-13T07:01:32.697Z,19.71
2023-05-13T07:02:32.683Z,19.86
2023-05-13T07:03:32.640Z,19.82
2023-05-13T07:04:32.600Z,19.94
2023-05-13T07:05:32.596Z,20.02
2023-05-13T07:06:32.574Z,20.06
2023-05-13T07:07:32.564Z,20.18
2023-05-13T07:08:32.577Z,20.24
2023-05-13T07:09:32.561Z,20.36
2023-05-13T07:10:32.542Z,20.44
2023-05-13T07:11:32.559Z,20.50
2023-05-13T07:12:32.516Z,20.55
2023-05-13T07:13:32.502Z,20.52
2023-05-13T07:14:32.498Z,20.51
2023-05-13T07:15:32.486Z,20.48
2023-05-13T07:16:32.500Z,20.56
2023-05-13T07:17:32.656Z,20.62
2023-05-13T07:18:32.596Z,20.65
2023-05-13T07:19:32.427Z,20.63
2023-05-13T07:20:32.450Z,20.58
2023-05-13T07:21:32.408Z,20.56
2023-05-13T07:22:32.406Z,20.60
2023-05-13T07:23:32.409Z,20.65
2023-05-13T07:24:32.372Z,20.78
2023-05-13T07:25:32.380Z,20.74
2023-05-13T07:26:32.370Z,20.77
2023-05-13T07:27:32.356Z,20.84
2023-05-13T07:28:32.345Z,20.85
2023-05-13T07:29:32.358Z,21.05
2023-05-13T07:30:32.406Z,20.92
2023-05-13T07:31:32.307Z,20.81
2023-05-13T07:32:32.321Z,20.87
2023-05-13T07:33:32.276Z,20.85
2023-05-13T07:34:32.267Z,20.85
2023-05-13T07:35:32.252Z,21.07
2023-05-13T07:36:32.285Z,21.03
2023-05-13T07:37:32.234Z,20.97
2023-05-13T07:38:32.233Z,21.05
2023-05-13T07:39:32.218Z,21.02
2023-05-13T07:40:32.223Z,21.02
2023-05-13T07:41:32.217Z,21.03
2023-05-13T07:42:32.200Z,21.18
2023-05-13T07:43:32.183Z,21.27
2023-05-13T07:44:32.154Z,21.29
2023-05-13T07:45:32.167Z,21.36
2023-05-13T07:46:32.180Z,21.33
2023-05-13T07:47:32.172Z,21.29
2023-05-13T07:48:32.108Z,21.15
2023-05-13T07:49:32.105Z,21.29
2023-05-13T07:50:32.125Z,21.25
2023-05-13T07:51:32.080Z,21.35
2023-05-13T07:52:32.068Z,21.39
2023-05-13T07:53:32.060Z,21.42
2023-05-13T07:54:32.056Z,21.40
2023-05-13T07:55:32.057Z,21.50
2023-05-13T07:56:32.032Z,21.55
2023-05-13T07:57:32.027Z,21.45
2023-05-13T07:58:32.017Z,21.62
2023-05-13T07:59:32.030Z,21.55
2023-05-13T08:00:31.987Z,21.64
2023-05-13T08:01:31.996Z,21.70
2023-05-13T08:02:32.017Z,21.72
2023-05-13T08:03:32.133Z,21.83
2023-05-13T08:04:32.002Z,21.61
2023-05-13T08:05:31.930Z,21.75
2023-05-13T08:06:32.837Z,21.64
2023-05-13T08:07:31.991Z,21.62
2023-05-13T08:08:31.906Z,21.66
2023-05-13T08:09:31.878Z,21.72
2023-05-13T08:10:31.867Z,21.60
2023-05-13T08:11:31.862Z,21.62
2023-05-13T08:12:31.856Z,21.73
2023-05-13T08:13:31.872Z,21.64
2023-05-13T08:14:31.836Z,21.70
2023-05-13T08:15:31.859Z,21.79
2023-05-13T08:16:31.961Z,21.89
2023-05-13T08:17:31.795Z,22.08
2023-05-13T08:18:31.837Z,22.06
2023-05-13T08:19:31.770Z,22.10
2023-05-13T08:20:31.766Z,22.02
2023-05-13T08:21:31.776Z,21.95
2023-05-13T08:22:31.734Z,22.11
2023-05-13T08:23:44.280Z,21.99
2023-05-13T08:24:32.726Z,22.15
2023-05-13T08:25:31.712Z,22.11
2023-05-13T08:26:31.709Z,22.17
2023-05-13T08:27:31.711Z,22.26
2023-05-13T08:28:31.671Z,22.23
2023-05-13T08:29:31.653Z,22.15
2023-05-13T08:30:31.669Z,22.14
2023-05-13T08:31:31.714Z,21.99
2023-05-13T08:32:31.670Z,22.07
2023-05-13T08:33:31.667Z,22.07
2023-05-13T08:34:31.621Z,22.17
2023-05-13T08:35:31.597Z,22.04
2023-05-13T08:36:31.612Z,21.85
2023-05-13T08:37:31.591Z,21.73
2023-05-13T08:38:31.586Z,21.88
2023-05-13T08:39:31.551Z,21.73
2023-05-13T08:40:31.535Z,21.75
2023-05-13T08:41:31.550Z,21.77
2023-05-13T08:42:31.548Z,21.79
2023-05-13T08:43:31.526Z,21.83
2023-05-13T08:44:31.495Z,21.85
2023-05-13T08:45:31.489Z,21.80
2023-05-13T08:46:31.673Z,21.79
2023-05-13T08:47:31.599Z,21.70
2023-05-13T08:48:31.469Z,21.95
2023-05-13T08:49:31.461Z,21.89
2023-05-13T08:50:31.436Z,21.82
2023-05-13T08:51:31.417Z,21.93
2023-05-13T08:52:31.416Z,22.02
2023-05-13T08:53:31.446Z,22.00
2023-05-13T08:54:31.400Z,22.10
2023-05-13T08:55:31.392Z,22.08
2023-05-13T08:56:31.397Z,22.07
2023-05-13T08:57:31.356Z,22.00
2023-05-13T08:58:31.478Z,22.04
2023-05-13T08:59:31.345Z,21.83
2023-05-13T09:00:31.336Z,21.89
2023-05-13T09:01:31.502Z,22.08
2023-05-13T09:02:31.323Z,22.06
2023-05-13T09:03:31.314Z,21.98
2023-05-13T09:04:31.508Z,21.98
2023-05-13T09:05:31.302Z,21.98
2023-05-13T09:06:31.297Z,22.07
2023-05-13T09:07:31.271Z,22.10
2023-05-13T09:08:31.233Z,22.14
2023-05-13T09:09:31.222Z,22.18
2023-05-13T09:10:31.259Z,22.26
2023-05-13T09:11:31.209Z,22.44
2023-05-13T09:12:31.210Z,22.44
2023-05-13T09:13:31.178Z,22.53
2023-05-13T09:14:31.188Z,22.45
2023-05-13T09:15:31.157Z,22.44
2023-05-13T09:16:31.177Z,22.53
2023-05-13T09:17:31.221Z,22.72
2023-05-13T09:18:31.263Z,22.47
2023-05-13T09:19:31.291Z,22.22
2023-05-13T09:20:31.104Z,22.07
2023-05-13T09:21:31.118Z,22.17
2023-05-13T09:22:31.089Z,22.23
2023-05-13T09:23:31.081Z,22.36
2023-05-13T09:24:31.063Z,22.33
2023-05-13T09:25:31.057Z,22.43
2023-05-13T09:26:31.032Z,22.48
2023-05-13T09:27:31.044Z,22.69
2023-05-13T09:28:31.026Z,22.62
2023-05-13T09:29:31.050Z,22.63
2023-05-13T09:30:31.046Z,22.68
2023-05-13T09:31:31.027Z,22.60
2023-05-13T09:32:31.011Z,22.73
2023-05-13T09:33:31.478Z,22.70
2023-05-13T09:34:30.952Z,22.72
2023-05-13T09:35:30.986Z,22.75
2023-05-13T09:36:30.939Z,22.47
2023-05-13T09:37:30.915Z,22.35
2023-05-13T09:38:30.918Z,22.18
2023-05-13T09:39:32.292Z,22.17
2023-05-13T09:40:30.894Z,22.39
2023-05-13T09:41:30.892Z,22.41
2023-05-13T09:42:30.856Z,22.50
2023-05-13T09:43:30.846Z,22.66
2023-05-13T09:44:30.834Z,22.55
2023-05-13T09:45:30.848Z,22.59
2023-05-13T09:46:30.852Z,22.68
2023-05-13T09:47:31.447Z,22.70
2023-05-13T09:48:30.796Z,22.68
2023-05-13T09:49:30.779Z,22.94
2023-05-13T09:50:30.794Z,22.94
2023-05-13T09:51:30.789Z,23.10
2023-05-13T09:52:30.760Z,23.12
2023-05-13T09:53:30.746Z,22.93
2023-05-13T09:54:33.052Z,23.18
2023-05-13T09:55:30.732Z,23.37
2023-05-13T09:56:30.703Z,23.47
2023-05-13T09:57:30.709Z,23.36
2023-05-13T09:58:30.827Z,23.34
2023-05-13T09:59:30.751Z,23.17
2023-05-13T10:00:32.926Z,23.10
2023-05-13T10:01:30.680Z,23.12
2023-05-13T10:02:30.667Z,22.99
2023-05-13T10:03:30.674Z,22.84
2023-05-13T10:04:30.629Z,22.88
2023-05-13T10:05:30.620Z,23.08
2023-05-13T10:06:30.642Z,23.12
2023-05-13T10:07:30.604Z,23.18
2023-05-13T10:08:30.585Z,23.25
2023-05-13T10:09:38.238Z,23.55
2023-05-13T10:10:30.560Z,23.59
2023-05-13T10:11:30.562Z,23.50
2023-05-13T10:12:30.587Z,23.41
2023-05-13T10:13:30.522Z,23.13
2023-05-13T10:14:30.515Z,22.96
2023-05-13T10:15:30.498Z,22.99
2023-05-13T10:16:30.528Z,22.98
2023-05-13T10:17:30.540Z,22.88
2023-05-13T10:18:30.525Z,22.91
2023-05-13T10:19:30.458Z,22.78
2023-05-13T10:20:30.454Z,22.53
2023-05-13T10:21:30.435Z,22.22
2023-05-13T10:22:30.428Z,22.20
2023-05-13T10:23:30.429Z,22.38
2023-05-13T10:24:30.430Z,22.39
2023-05-13T10:25:30.401Z,22.45
2023-05-13T10:26:30.391Z,22.50
2023-05-13T10:27:30.375Z,22.60
2023-05-13T10:28:30.366Z,22.78
2023-05-13T10:29:30.385Z,23.03
2023-05-13T10:30:30.342Z,23.12
2023-05-13T10:31:30.369Z,23.28
2023-05-13T10:32:30.385Z,23.25
2023-05-13T10:33:30.314Z,23.08
2023-05-13T10:34:30.300Z,23.25
2023-05-13T10:35:30.305Z,23.39
2023-05-13T10:36:30.273Z,23.39
2023-05-13T10:37:30.267Z,23.40
2023-05-13T10:38:30.253Z,23.41
2023-05-13T10:39:30.264Z,23.32
2023-05-13T10:40:30.252Z,23.51
2023-05-13T10:41:30.212Z,23.47
2023-05-13T10:42:30.210Z,23.48
2023-05-13T10:43:30.213Z,23.44
2023-05-13T10:44:30.173Z,23.43
2023-05-13T10:45:30.170Z,23.44
2023-05-13T10:46:30.262Z,23.36
2023-05-13T10:47:30.186Z,23.24
2023-05-13T10:48:30.224Z,22.99
2023-05-13T10:49:30.158Z,22.87
2023-05-13T10:50:30.122Z,22.99
2023-05-13T10:51:30.127Z,23.12
2023-05-13T10:52:30.111Z,22.96
2023-05-13T10:53:30.077Z,23.15
2023-05-13T10:54:30.083Z,23.13
2023-05-13T10:55:30.089Z,23.12
2023-05-13T10:56:30.046Z,23.31
2023-05-13T10:57:30.056Z,23.43
2023-05-13T10:58:30.045Z,23.09
2023-05-13T10:59:30.024Z,23.00
2023-05-13T11:00:30.063Z,22.96
2023-05-13T11:01:30.111Z,22.94
2023-05-13T11:02:30.058Z,22.99
2023-05-13T11:03:30.113Z,23.09
2023-05-13T11:04:29.955Z,23.10
2023-05-13T11:05:29.951Z,23.25
2023-05-13T11:06:29.968Z,23.17
2023-05-13T11:07:29.959Z,23.24
2023-05-13T11:08:29.926Z,23.23
2023-05-13T11:09:29.931Z,23.36
2023-05-13T11:10:29.902Z,23.43
2023-05-13T11:11:29.937Z,23.58
2023-05-13T11:12:29.874Z,23.71
2023-05-13T11:13:29.860Z,23.74
2023-05-13T11:14:29.873Z,23.71
2023-05-13T11:15:29.839Z,23.47
2023-05-13T11:16:29.868Z,23.40
2023-05-13T11:17:29.861Z,23.48
2023-05-13T11:18:29.830Z,23.47
2023-05-13T11:19:29.875Z,23.50
2023-05-13T11:20:30.488Z,23.41
2023-05-13T11:21:29.780Z,23.43
2023-05-13T11:22:29.791Z,23.43
2023-05-13T11:23:29.758Z,23.46
2023-05-13T11:24:29.763Z,23.37
2023-05-13T11:25:29.732Z,23.50
2023-05-13T11:26:29.730Z,23.46
2023-05-13T11:27:29.734Z,23.55
2023-05-13T11:28:29.704Z,23.54
2023-05-13T11:29:29.830Z,23.59
2023-05-13T11:30:29.693Z,23.55
2023-05-13T11:31:29.724Z,23.36
2023-05-13T11:32:29.678Z,23.34
2023-05-13T11:33:29.645Z,23.12
2023-05-13T11:34:29.898Z,23.15
2023-05-13T11:35:29.654Z,22.91
2023-05-13T11:36:29.622Z,23.00
2023-05-13T11:37:29.608Z,23.08
2023-05-13T11:38:29.606Z,22.94
2023-05-13T11:39:29.586Z,23.13
2023-05-13T11:40:29.594Z,23.10
2023-05-13T11:41:29.586Z,23.17
2023-05-13T11:42:29.587Z,23.23
2023-05-13T11:43:29.569Z,23.15
2023-05-13T11:44:29.603Z,23.15
2023-05-13T11:45:29.674Z,23.12
2023-05-13T11:46:29.541Z,22.98
2023-05-13T11:47:29.587Z,22.96
2023-05-13T11:48:29.508Z,22.90
2023-05-13T11:49:29.506Z,23.17
2023-05-13T11:50:29.492Z,23.15
2023-05-13T11:51:29.458Z,23.12
2023-05-13T11:52:29.450Z,23.27
2023-05-13T11:53:29.431Z,23.47
2023-05-13T11:54:29.414Z,23.46
2023-05-13T11:55:29.427Z,23.40
2023-05-13T11:56:29.390Z,23.54
2023-05-13T11:57:29.385Z,23.54
2023-05-13T11:58:29.386Z,23.34
2023-05-13T11:59:38.576Z,23.25
2023-05-13T12:00:30.370Z,23.32
2023-05-13T12:01:29.361Z,23.43
2023-05-13T12:02:29.480Z,23.34
2023-05-13T12:03:29.390Z,23.27
2023-05-13T12:04:29.313Z,23.39
2023-05-13T12:05:29.364Z,23.40
2023-05-13T12:06:29.293Z,23.43
2023-05-13T12:07:29.291Z,23.43
2023-05-13T12:08:29.304Z,23.55
2023-05-13T12:09:29.255Z,23.61
2023-05-13T12:10:29.244Z,23.58
2023-05-13T12:11:29.263Z,23.58
2023-05-13T12:12:29.232Z,23.55
2023-05-13T12:13:29.222Z,23.56
2023-05-13T12:14:29.197Z,23.73
2023-05-13T12:15:29.223Z,23.73
2023-05-13T12:16:29.330Z,23.73
2023-05-13T12:17:29.239Z,23.78
2023-05-13T12:18:29.225Z,23.86
2023-05-13T12:19:29.164Z,23.93
2023-05-13T12:20:29.136Z,23.87
2023-05-13T12:21:29.120Z,23.84
2023-05-13T12:22:29.128Z,23.83
2023-05-13T12:23:29.125Z,23.95
2023-05-13T12:24:29.114Z,23.87
2023-05-13T12:25:29.100Z,23.91
2023-05-13T12:26:29.106Z,24.03
2023-05-13T12:27:29.058Z,23.93
2023-05-13T12:28:29.060Z,23.84
2023-05-13T12:29:29.038Z,23.71
2023-05-13T12:30:29.042Z,23.71
2023-05-13T12:31:29.093Z,23.55
2023-05-13T12:32:29.105Z,23.55
2023-05-13T12:33:28.991Z,23.56
2023-05-13T12:34:28.990Z,23.54
2023-05-13T12:35:28.970Z,23.47
2023-05-13T12:36:29.026Z,23.63
2023-05-13T12:37:28.952Z,23.81
2023-05-13T12:38:28.953Z,23.62
2023-05-13T12:39:28.954Z,23.65
2023-05-13T12:40:28.975Z,23.54
2023-05-13T12:41:28.929Z,23.65
2023-05-13T12:42:28.934Z,23.91
2023-05-13T12:43:28.880Z,23.99
2023-05-13T12:44:28.896Z,24.14
2023-05-13T12:45:28.862Z,24.11
2023-05-13T12:46:28.932Z,24.18
2023-05-13T12:47:28.901Z,24.36
2023-05-13T12:48:28.848Z,24.35
2023-05-13T12:49:28.815Z,24.48
2023-05-13T12:50:28.828Z,24.58
2023-05-13T12:51:28.813Z,24.58
2023-05-13T12:52:28.800Z,24.66